createdAt,value
2023-05-03T00:00:47.628Z,101310.28
2023-05-03T00:03:53.771Z,101313.16
2023-05-03T00:06:56.696Z,101314.16
2023-05-03T00:09:59.565Z,101314.28
2023-05-03T00:13:02.688Z,101319.81
2023-05-03T00:16:05.991Z,101319.84
2023-05-03T00:19:17.688Z,101317.13
2023-05-03T00:22:27.574Z,101314.47
2023-05-03T00:25:30.329Z,101319.03
2023-05-03T00:28:33.037Z,101330.84
2023-05-03T00:31:36.123Z,101328.22
2023-05-03T00:34:40.306Z,101322.91
2023-05-03T00:37:43.023Z,101326.53
2023-05-03T00:40:46.281Z,101322.97
2023-05-03T00:43:48.942Z,101323.06
2023-05-03T00:46:52.753Z,101321.25
2023-05-03T00:49:57.256Z,101327.59
2023-05-03T00:53:00.039Z,101317.84
2023-05-03T00:56:03.660Z,101315.19
2023-05-03T00:59:07.273Z,101301.13
2023-05-03T01:02:10.068Z,101314.53
2023-05-03T01:05:14.304Z,101317.28
2023-05-03T01:08:26.661Z,101313.78
2023-05-03T01:11:38.942Z,101315.63
2023-05-03T01:14:51.041Z,101309.31
2023-05-03T01:18:03.066Z,101299.41
2023-05-03T01:21:09.252Z,101301.25
2023-05-03T01:24:18.975Z,101293.19
2023-05-03T01:27:23.029Z,101292.34
2023-05-03T01:30:29.052Z,101290.63
2023-05-03T01:33:41.457Z,101282.63
2023-05-03T01:36:46.190Z,101288.00
2023-05-03T01:39:55.340Z,101288.94
2023-05-03T01:43:00.783Z,101299.56
2023-05-03T01:46:03.833Z,101292.19
2023-05-03T01:49:06.589Z,101290.28
2023-05-03T01:52:09.455Z,101292.97
2023-05-03T01:55:12.304Z,101288.38
2023-05-03T01:58:16.413Z,101291.06
2023-05-03T02:01:19.899Z,101278.47
2023-05-03T02:04:22.732Z,101278.53
2023-05-03T02:07:26.777Z,101283.19
2023-05-03T02:10:29.447Z,101285.16
2023-05-03T02:13:39.964Z,101281.75
2023-05-03T02:16:43.146Z,101280.97
2023-05-03T02:19:45.874Z,101286.44
2023-05-03T02:22:48.616Z,101289.25
2023-05-03T02:25:51.423Z,101292.91
2023-05-03T02:28:55.954Z,101293.88
2023-05-03T02:31:58.632Z,101293.91
2023-05-03T02:35:01.765Z,101298.47
2023-05-03T02:38:04.484Z,101301.19
2023-05-03T02:41:07.439Z,101311.13
2023-05-03T02:44:11.781Z,101304.91
2023-05-03T02:47:14.643Z,101304.06
2023-05-03T02:50:17.424Z,101312.16
2023-05-03T02:53:20.102Z,101299.66
2023-05-03T02:56:22.797Z,101308.66
2023-05-03T02:59:26.828Z,101305.03
2023-05-03T03:02:30.332Z,101302.34
2023-05-03T03:05:33.170Z,101304.31
2023-05-03T03:08:37.462Z,101306.22
2023-05-03T03:11:40.156Z,101298.25
2023-05-03T03:14:45.817Z,101295.66
2023-05-03T03:17:48.574Z,101294.78
2023-05-03T03:20:53.621Z,101297.59
2023-05-03T03:23:56.480Z,101303.03
2023-05-03T03:26:59.206Z,101306.69
2023-05-03T03:30:03.515Z,101312.13
2023-05-03T03:33:09.402Z,101301.47
2023-05-03T03:36:12.161Z,101309.63
2023-05-03T03:39:14.882Z,101305.25
2023-05-03T03:42:19.126Z,101318.75
2023-05-03T03:45:23.870Z,101325.13
2023-05-03T03:48:26.609Z,101326.06
2023-05-03T03:51:29.410Z,101328.81
2023-05-03T03:54:32.249Z,101329.75
2023-05-03T03:57:34.952Z,101334.25
2023-05-03T04:00:39.451Z,101339.66
2023-05-03T04:03:47.525Z,101336.13
2023-05-03T04:06:50.473Z,101334.31
2023-05-03T04:09:53.218Z,101342.41
2023-05-03T04:12:56.022Z,101332.53
2023-05-03T04:16:02.143Z,101341.53
2023-05-03T04:19:05.987Z,101338.81
2023-05-03T04:22:08.618Z,101336.09
2023-05-03T04:25:14.060Z,101331.53
2023-05-03T04:28:16.820Z,101306.53
2023-05-03T04:31:22.141Z,101330.59
2023-05-03T04:34:30.238Z,101335.91
2023-05-03T04:37:35.318Z,101342.16
2023-05-03T04:40:38.362Z,101338.50
2023-05-03T04:43:41.032Z,101337.50
2023-05-03T04:46:45.151Z,101336.63
2023-05-03T04:49:47.904Z,101340.19
2023-05-03T04:52:50.689Z,101337.47
2023-05-03T04:55:53.391Z,101349.03
2023-05-03T04:58:56.150Z,101321.22
2023-05-03T05:02:00.398Z,101344.34
2023-05-03T05:05:06.286Z,101350.50
2023-05-03T05:08:11.790Z,101356.63
2023-05-03T05:11:15.697Z,101351.94
2023-05-03T05:14:18.483Z,101341.94
2023-05-03T05:17:22.620Z,101346.25
2023-05-03T05:20:25.326Z,101353.22
2023-05-03T05:23:28.027Z,101343.19
2023-05-03T05:26:31.019Z,101353.88
2023-05-03T05:29:34.460Z,101353.69
2023-05-03T05:32:38.644Z,101366.13
2023-05-03T05:35:41.447Z,101360.63
2023-05-03T05:38:44.214Z,101366.84
2023-05-03T05:41:46.969Z,101371.88
2023-05-03T05:44:49.651Z,101364.34
2023-05-03T05:47:53.736Z,101366.41
2023-05-03T05:50:58.685Z,101352.56
2023-05-03T05:54:01.388Z,101347.22
2023-05-03T05:57:04.110Z,101336.69
2023-05-03T06:00:14.804Z,101328.09
2023-05-03T06:03:19.468Z,101320.91
2023-05-03T06:06:22.545Z,101325.03
2023-05-03T06:09:25.407Z,101317.13
2023-05-03T06:12:28.435Z,101308.84
2023-05-03T06:15:31.574Z,101306.44
2023-05-03T06:18:35.641Z,101295.47
2023-05-03T06:21:38.337Z,101305.75
2023-05-03T06:24:41.181Z,101299.59
2023-05-03T06:27:43.988Z,101288.59
2023-05-03T06:30:50.439Z,101292.09
2023-05-03T06:33:54.585Z,101284.75
2023-05-03T06:36:57.541Z,101280.53
2023-05-03T06:40:00.531Z,101275.63
2023-05-03T06:43:03.703Z,101275.47
2023-05-03T06:46:08.891Z,101273.94
2023-05-03T06:49:13.021Z,101267.88
2023-05-03T06:52:16.358Z,101271.09
2023-05-03T06:55:19.980Z,101265.88
2023-05-03T06:58:22.693Z,101264.28
2023-05-03T07:01:25.460Z,101268.03
2023-05-03T07:04:30.394Z,101253.50
2023-05-03T07:07:34.271Z,101250.13
2023-05-03T07:10:37.006Z,101250.78
2023-05-03T07:13:39.923Z,101249.03
2023-05-03T07:16:45.566Z,101238.59
2023-05-03T07:19:50.869Z,101235.34
2023-05-03T07:22:55.755Z,101237.53
2023-05-03T07:25:59.392Z,101240.69
2023-05-03T07:29:02.107Z,101231.09
2023-05-03T07:32:05.657Z,101232.78
2023-05-03T07:35:10.928Z,101225.69
2023-05-03T07:38:16.819Z,101234.25
2023-05-03T07:41:19.743Z,101229.47
2023-05-03T07:44:22.438Z,101220.53
2023-05-03T07:47:25.242Z,101229.38
2023-05-03T07:50:29.299Z,101232.50
2023-05-03T07:53:32.009Z,101231.59
2023-05-03T07:56:34.789Z,101234.38
2023-05-03T07:59:38.725Z,101228.19
2023-05-03T08:02:41.979Z,101223.03
2023-05-03T08:05:48.227Z,101231.03
2023-05-03T08:08:51.113Z,101230.41
2023-05-03T08:11:53.843Z,101226.34
2023-05-03T08:14:57.353Z,101228.63
2023-05-03T08:18:02.306Z,101226.94
2023-05-03T08:21:08.028Z,101230.50
2023-05-03T08:24:10.834Z,101239.16
2023-05-03T08:27:13.554Z,101249.31
2023-05-03T08:30:16.717Z,101246.91
2023-05-03T08:33:19.381Z,101254.44
2023-05-03T08:36:23.539Z,101248.28
2023-05-03T08:39:27.101Z,101243.28
2023-05-03T08:42:31.988Z,101237.28
2023-05-03T08:45:34.667Z,101235.50
2023-05-03T08:48:37.361Z,101235.03
2023-05-03T08:51:42.369Z,101221.84
2023-05-03T08:54:46.687Z,101228.22
2023-05-03T08:57:52.115Z,101221.94
2023-05-03T09:00:54.905Z,101221.06
2023-05-03T09:03:57.778Z,101218.81
2023-05-03T09:07:10.430Z,101215.50
2023-05-03T09:10:24.132Z,101218.06
2023-05-03T09:13:32.071Z,101217.06
2023-05-03T09:16:35.005Z,101213.28
2023-05-03T09:19:51.136Z,101219.06
2023-05-03T09:22:55.269Z,101216.69
2023-05-03T09:25:59.168Z,101222.06
2023-05-03T09:29:03.628Z,101210.13
2023-05-03T09:32:08.457Z,101222.38
2023-05-03T09:35:11.346Z,101221.97
2023-05-03T09:38:27.820Z,101206.06
2023-05-03T09:41:34.104Z,101210.03
2023-05-03T09:44:51.460Z,101187.63
2023-05-03T09:47:55.833Z,101207.53
2023-05-03T09:50:59.050Z,101202.00
2023-05-03T09:54:04.532Z,101206.72
2023-05-03T09:57:08.854Z,101200.41
2023-05-03T10:00:13.804Z,101197.47
2023-05-03T10:03:24.682Z,101195.22
2023-05-03T10:06:33.034Z,101193.88
2023-05-03T10:09:40.958Z,101193.25
2023-05-03T10:12:48.850Z,101191.03
2023-05-03T10:15:57.208Z,101182.25
2023-05-03T10:19:08.298Z,101178.47
2023-05-03T10:22:12.355Z,101161.94
2023-05-03T10:25:16.809Z,101167.06
2023-05-03T10:28:19.570Z,101161.09
2023-05-03T10:31:46.242Z,101160.94
2023-05-03T10:34:49.077Z,101156.38
2023-05-03T10:37:52.844Z,101157.06
2023-05-03T10:40:59.115Z,101146.72
2023-05-03T10:44:02.302Z,101149.28
2023-05-03T10:47:13.818Z,101142.72
2023-05-03T10:50:27.335Z,101135.38
2023-05-03T10:53:41.180Z,101126.41
2023-05-03T10:56:57.208Z,101117.41
2023-05-03T11:00:03.137Z,101117.44
2023-05-03T11:03:14.221Z,101115.06
2023-05-03T11:06:31.657Z,101116.56
2023-05-03T11:09:35.447Z,101116.38
2023-05-03T11:12:39.498Z,101105.59
2023-05-03T11:15:43.381Z,101114.59
2023-05-03T11:18:46.688Z,101096.31
2023-05-03T11:21:49.521Z,101099.06
2023-05-03T11:24:52.359Z,101088.97
2023-05-03T11:27:56.462Z,101082.03
2023-05-03T11:30:59.237Z,101065.94
2023-05-03T11:34:02.278Z,101071.59
2023-05-03T11:37:05.292Z,101078.59
2023-05-03T11:40:15.531Z,101078.84
2023-05-03T11:43:19.614Z,101072.78
2023-05-03T11:46:26.486Z,101080.34
2023-05-03T11:49:29.423Z,101077.00
2023-05-03T11:52:32.150Z,101083.41
2023-05-03T11:55:34.926Z,101088.09
2023-05-03T11:58:51.298Z,101073.59
2023-05-03T12:01:55.744Z,101068.81
2023-05-03T12:04:58.671Z,101063.44
2023-05-03T12:08:02.817Z,101066.50
2023-05-03T12:11:09.524Z,101058.16
2023-05-03T12:14:15.591Z,101056.50
2023-05-03T12:17:38.774Z,101053.97
2023-05-03T12:21:29.274Z,101042.53
2023-05-03T12:24:06.656Z,101040.78
2023-05-03T12:27:09.588Z,101038.50
2023-05-03T12:33:21.895Z,101050.75
2023-05-03T12:36:26.560Z,101031.72
2023-05-03T12:39:31.653Z,101038.09
2023-05-03T12:42:35.639Z,101035.72
2023-05-03T12:45:40.796Z,101026.53
2023-05-03T12:48:46.517Z,101021.22
2023-05-03T12:52:04.855Z,101018.34
2023-05-03T12:55:17.818Z,101024.16
2023-05-03T13:04:57.214Z,101012.25
2023-05-03T13:07:59.191Z,101016.34
2023-05-03T13:11:02.824Z,101005.19
2023-05-03T13:14:05.886Z,100995.34
2023-05-03T13:17:10.343Z,100990.06
2023-05-03T13:20:14.373Z,100991.63
2023-05-03T13:23:17.016Z,100977.13
2023-05-03T13:26:19.872Z,100975.38
2023-05-03T13:29:24.152Z,100968.69
2023-05-03T13:32:28.402Z,100963.59
2023-05-03T13:35:31.888Z,100953.28
2023-05-03T13:38:34.787Z,100948.09
2023-05-03T13:41:38.762Z,100946.66
2023-05-03T13:44:42.540Z,100940.09
2023-05-03T13:48:13.965Z,100948.16
2023-05-03T13:51:10.427Z,100935.16
2023-05-03T13:54:13.187Z,100921.88
2023-05-03T13:57:16.018Z,100919.47
2023-05-03T14:00:20.753Z,100921.03
2023-05-03T14:03:25.049Z,100925.16
2023-05-03T14:06:29.299Z,100914.66
2023-05-03T14:09:33.146Z,100903.88
2023-05-03T14:12:37.151Z,100908.69
2023-05-03T14:15:40.730Z,100900.78
2023-05-03T14:18:45.206Z,100906.06
2023-05-03T14:21:49.809Z,100902.78
2023-05-03T14:24:52.725Z,100903.66
2023-05-03T14:27:55.555Z,100912.88
2023-05-03T14:30:58.379Z,100899.06
2023-05-03T14:34:02.521Z,100903.19
2023-05-03T14:37:05.275Z,100900.56
2023-05-03T14:40:09.304Z,100890.69
2023-05-03T14:43:12.028Z,100894.66
2023-05-03T14:46:14.915Z,100897.28
2023-05-03T14:49:19.226Z,100892.44
2023-05-03T14:52:21.950Z,100894.44
2023-05-03T14:55:24.730Z,100908.06
2023-05-03T14:58:27.641Z,100896.63
2023-05-03T15:01:30.463Z,100893.75
2023-05-03T15:04:37.013Z,100901.03
2023-05-03T15:07:39.906Z,100894.97
2023-05-03T15:10:44.412Z,100878.13
2023-05-03T15:13:47.204Z,100900.56
2023-05-03T15:16:50.036Z,100893.97
2023-05-03T15:19:54.041Z,100879.56
2023-05-03T15:22:56.927Z,100892.84
2023-05-03T15:25:59.586Z,100882.75
2023-05-03T15:29:02.354Z,100878.59
2023-05-03T15:32:05.565Z,100888.81
2023-05-03T15:35:10.345Z,100866.25
2023-05-03T15:38:13.120Z,100872.94
2023-05-03T15:41:15.827Z,100883.63
2023-05-03T15:44:18.488Z,100873.31
2023-05-03T15:47:22.606Z,100879.03
2023-05-03T15:50:26.637Z,100871.56
2023-05-03T15:53:29.319Z,100874.84
2023-05-03T15:56:32.320Z,100863.19
2023-05-03T15:59:35.113Z,100867.91
2023-05-03T16:02:38.432Z,100869.56
2023-05-03T16:05:42.516Z,100869.56
2023-05-03T16:08:45.389Z,100869.69
2023-05-03T16:11:48.899Z,100868.06
2023-05-03T16:14:52.854Z,100863.75
2023-05-03T16:17:55.725Z,100866.50
2023-05-03T16:21:02.939Z,100858.38
2023-05-03T16:24:06.532Z,100854.00
2023-05-03T16:27:11.571Z,100858.06
2023-05-03T16:30:15.179Z,100857.41
2023-05-03T16:33:18.341Z,100845.22
2023-05-03T16:36:24.991Z,100859.94
2023-05-03T16:39:28.398Z,100850.28
2023-05-03T16:42:32.242Z,100846.97
2023-05-03T16:45:35.084Z,100850.94
2023-05-03T16:48:37.792Z,100853.09
2023-05-03T16:51:41.889Z,100848.16
2023-05-03T16:54:44.632Z,100844.97
2023-05-03T16:57:50.022Z,100853.31
2023-05-03T17:00:53.478Z,100844.09
2023-05-03T17:03:56.426Z,100841.78
2023-05-03T17:07:04.715Z,100850.75
2023-05-03T17:10:08.736Z,100855.00
2023-05-03T17:13:11.721Z,100854.56
2023-05-03T17:16:15.870Z,100851.28
2023-05-03T17:19:19.521Z,100858.72
2023-05-03T17:22:23.635Z,100860.22
2023-05-03T17:25:26.468Z,100862.44
2023-05-03T17:28:29.221Z,100857.66
2023-05-03T17:31:32.075Z,100858.19
2023-05-03T17:34:34.914Z,100857.69
2023-05-03T17:37:39.100Z,100858.97
2023-05-03T17:40:43.272Z,100849.72
2023-05-03T17:43:46.259Z,100856.00
2023-05-03T17:46:49.069Z,100860.22
2023-05-03T17:49:51.983Z,100860.34
2023-05-03T17:52:58.904Z,100857.91
2023-05-03T17:56:01.695Z,100865.16
2023-05-03T17:59:04.386Z,100874.63
2023-05-03T18:02:07.561Z,100861.94
2023-05-03T18:05:11.018Z,100861.16
2023-05-03T18:08:15.082Z,100861.94
2023-05-03T18:11:17.757Z,100863.84
2023-05-03T18:14:22.766Z,100872.94
2023-05-03T18:17:25.774Z,100866.88
2023-05-03T18:20:28.730Z,100881.69
2023-05-03T18:23:33.679Z,100884.94
2023-05-03T18:26:36.486Z,100886.06
2023-05-03T18:29:39.232Z,100893.00
2023-05-03T18:32:42.264Z,100888.88
2023-05-03T18:35:48.391Z,100888.72
2023-05-03T18:38:53.767Z,100894.88
2023-05-03T18:41:57.060Z,100894.84
2023-05-03T18:44:59.783Z,100902.50
2023-05-03T18:48:02.484Z,100906.06
2023-05-03T18:51:05.633Z,100897.16
2023-05-03T18:54:10.410Z,100908.25
2023-05-03T18:57:13.551Z,100929.81
2023-05-03T19:00:18.461Z,100928.69
2023-05-03T19:03:21.190Z,100929.31
2023-05-03T19:06:24.261Z,100929.97
2023-05-03T19:09:28.458Z,100937.81
2023-05-03T19:12:31.483Z,100940.19
2023-05-03T19:15:34.384Z,100943.38
2023-05-03T19:18:39.971Z,100936.53
2023-05-03T19:21:43.821Z,100941.56
2023-05-03T19:24:48.017Z,100942.75
2023-05-03T19:27:50.861Z,100944.13
2023-05-03T19:30:54.300Z,100945.50
2023-05-03T19:33:57.141Z,100949.59
2023-05-03T19:36:59.822Z,100959.97
2023-05-03T19:40:04.878Z,100964.09
2023-05-03T19:43:08.323Z,100965.41
2023-05-03T19:46:11.124Z,100959.44
2023-05-03T19:49:13.946Z,100960.69
2023-05-03T19:52:16.689Z,100961.03
2023-05-03T19:55:20.905Z,100963.31
2023-05-03T19:58:23.642Z,100962.78
2023-05-03T20:01:26.786Z,100966.72
2023-05-03T20:04:29.615Z,100971.56
2023-05-03T20:07:32.565Z,100960.94
2023-05-03T20:10:37.171Z,100976.69
2023-05-03T20:13:39.909Z,100980.97
2023-05-03T20:16:43.289Z,100976.19
2023-05-03T20:19:46.493Z,100982.97
2023-05-03T20:22:49.702Z,100984.28
2023-05-03T20:25:54.087Z,100986.53
2023-05-03T20:28:57.277Z,100983.13
2023-05-03T20:32:00.332Z,100978.81
2023-05-03T20:35:04.858Z,100979.84
2023-05-03T20:38:07.668Z,100980.88
2023-05-03T20:41:11.763Z,100969.44
2023-05-03T20:44:14.813Z,100960.63
2023-05-03T20:47:17.593Z,100975.22
2023-05-03T20:50:20.881Z,100966.41
2023-05-03T20:53:23.647Z,100977.59
2023-05-03T20:56:27.770Z,100966.06
2023-05-03T20:59:30.832Z,100972.53
2023-05-03T21:02:33.600Z,100954.97
2023-05-03T21:05:36.606Z,100971.94
2023-05-03T21:08:39.333Z,100974.78
2023-05-03T21:11:43.379Z,100976.75
2023-05-03T21:14:46.322Z,100978.72
2023-05-03T21:17:49.027Z,100969.53
2023-05-03T21:20:54.448Z,100984.72
2023-05-03T21:23:57.248Z,100979.44
2023-05-03T21:27:02.693Z,100989.59
2023-05-03T21:30:06.401Z,100981.63
2023-05-03T21:33:09.391Z,100979.38
2023-05-03T21:36:12.577Z,100993.53
2023-05-03T21:39:15.353Z,100993.75
2023-05-03T21:42:19.453Z,100987.59
2023-05-03T21:45:23.239Z,100991.38
2023-05-03T21:48:26.420Z,100979.66
2023-05-03T21:51:29.137Z,100994.25
2023-05-03T21:54:31.888Z,100988.88
2023-05-03T21:57:36.761Z,100992.56
2023-05-03T22:00:40.467Z,100996.25
2023-05-03T22:03:43.322Z,100980.41
2023-05-03T22:06:47.063Z,100984.72
2023-05-03T22:09:49.844Z,100983.06
2023-05-03T22:12:54.035Z,100976.97
2023-05-03T22:15:56.831Z,100982.47
2023-05-03T22:18:59.542Z,100979.13
2023-05-03T22:22:02.507Z,100982.00
2023-05-03T22:25:06.739Z,100977.63
2023-05-03T22:28:10.877Z,100978.72
2023-05-03T22:31:13.710Z,100983.34
2023-05-03T22:34:16.909Z,100973.59
2023-05-03T22:37:19.653Z,100980.00
2023-05-03T22:40:22.500Z,100983.69
2023-05-03T22:43:26.821Z,100987.63
2023-05-03T22:46:29.536Z,100985.03
2023-05-03T22:49:32.246Z,100986.03
2023-05-03T22:52:35.114Z,100981.00
2023-05-03T22:55:37.970Z,100984.06
2023-05-03T22:58:42.127Z,100978.81
2023-05-03T23:01:46.418Z,100982.66
2023-05-03T23:04:49.177Z,100984.44
2023-05-03T23:07:52.347Z,100982.72
2023-05-03T23:10:57.464Z,100978.44
2023-05-03T23:14:01.547Z,100978.75
2023-05-03T23:17:04.543Z,100986.19
2023-05-03T23:20:09.991Z,100976.34
2023-05-03T23:23:12.794Z,100980.78
2023-05-03T23:26:15.560Z,100975.50
2023-05-03T23:29:20.122Z,100980.91
2023-05-03T23:32:23.376Z,100979.03
2023-05-03T23:35:26.842Z,100976.28
2023-05-03T23:38:29.603Z,100978.09
2023-05-03T23:41:33.994Z,100978.16
2023-05-03T23:44:50.895Z,100967.50
2023-05-03T23:47:56.349Z,100972.97
2023-05-03T23:50:59.106Z,100969.38
2023-05-03T23:54:02.346Z,100972.13
2023-05-03T23:57:05.090Z,100964.22
